sensor_id;sensor_type;location;lat;lon;timestamp;pressure;altitude;pressure_sealevel;temperature;humidity
55656;BME280;41530;52.382;5.270;2023-05-01T00:00:35;102083.81;;;20.50;42.18
55656;BME280;41530;52.382;5.270;2023-05-01T00:03:02;102071.72;;;20.46;42.49
55656;BME280;41530;52.382;5.270;2023-05-01T00:05:29;102074.38;;;20.46;42.14
55656;BME280;41530;52.382;5.270;2023-05-01T00:07:56;102074.38;;;20.46;42.14
55656;BME280;41530;52.382;5.270;2023-05-01T00:10:24;102063.81;;;20.44;42.40
55656;BME280;41530;52.382;5.270;2023-05-01T00:12:51;102071.97;;;20.43;42.24
55656;BME280;41530;52.382;5.270;2023-05-01T00:15:17;102063.97;;;20.43;42.47
55656;BME280;41530;52.382;5.270;2023-05-01T00:17:44;102056.09;;;20.41;42.32
55656;BME280;41530;52.382;5.270;2023-05-01T00:20:11;102057.06;;;20.40;42.29
55656;BME280;41530;52.382;5.270;2023-05-01T00:22:37;102051.72;;;20.40;42.37
55656;BME280;41530;52.382;5.270;2023-05-01T00:25:04;102050.88;;;20.40;42.25
55656;BME280;41530;52.382;5.270;2023-05-01T00:27:31;102040.31;;;20.38;42.36
55656;BME280;41530;52.382;5.270;2023-05-01T00:29:58;102049.34;;;20.37;42.24
55656;BME280;41530;52.382;5.270;2023-05-01T00:32:25;102045.00;;;20.36;42.40
55656;BME280;41530;52.382;5.270;2023-05-01T00:34:52;102035.25;;;20.35;42.47
55656;BME280;41530;52.382;5.270;2023-05-01T00:37:18;102045.09;;;20.35;42.25
55656;BME280;41530;52.382;5.270;2023-05-01T00:39:45;102037.22;;;20.33;42.25
55656;BME280;41530;52.382;5.270;2023-05-01T00:42:12;102032.00;;;20.32;42.35
55656;BME280;41530;52.382;5.270;2023-05-01T00:44:38;102029.34;;;20.32;42.46
55656;BME280;41530;52.382;5.270;2023-05-01T00:47:05;102026.66;;;20.32;42.48
55656;BME280;41530;52.382;5.270;2023-05-01T00:49:32;102025.97;;;20.29;42.34
55656;BME280;41530;52.382;5.270;2023-05-01T00:51:59;102022.44;;;20.29;42.27
55656;BME280;41530;52.382;5.270;2023-05-01T00:54:25;102007.66;;;20.25;42.32
55656;BME280;41530;52.382;5.270;2023-05-01T00:56:54;102009.34;;;20.26;42.16
55656;BME280;41530;52.382;5.270;2023-05-01T00:59:20;102011.19;;;20.25;42.21
55656;BME280;41530;52.382;5.270;2023-05-01T01:01:47;102003.47;;;20.22;42.01
55656;BME280;41530;52.382;5.270;2023-05-01T01:04:14;102003.59;;;20.21;42.35
55656;BME280;41530;52.382;5.270;2023-05-01T01:09:54;101989.41;;;20.20;42.21
55656;BME280;41530;52.382;5.270;2023-05-01T01:12:41;101996.84;;;20.17;42.13
55656;BME280;41530;52.382;5.270;2023-05-01T01:18:09;101989.94;;;20.14;42.30
55656;BME280;41530;52.382;5.270;2023-05-01T01:31:28;101973.66;;;20.08;42.11
55656;BME280;41530;52.382;5.270;2023-05-01T01:37:29;101927.66;;;19.85;42.12
55656;BME280;41530;52.382;5.270;2023-05-01T01:41:23;101928.38;;;19.87;42.01
55656;BME280;41530;52.382;5.270;2023-05-01T01:43:41;101933.59;;;19.88;42.04
55656;BME280;41530;52.382;5.270;2023-05-01T01:46:49;101926.69;;;19.86;42.38
55656;BME280;41530;52.382;5.270;2023-05-01T01:50:19;101912.94;;;19.81;42.28
55656;BME280;41530;52.382;5.270;2023-05-01T01:52:59;101910.13;;;19.82;42.13
55656;BME280;41530;52.382;5.270;2023-05-01T01:55:57;101925.28;;;19.91;42.18
55656;BME280;41530;52.382;5.270;2023-05-01T02:02:19;101903.38;;;19.78;42.28
55656;BME280;41530;52.382;5.270;2023-05-01T02:04:54;101908.31;;;19.83;42.18
55656;BME280;41530;52.382;5.270;2023-05-01T02:08:01;101904.94;;;19.81;42.22
55656;BME280;41530;52.382;5.270;2023-05-01T02:10:54;101884.56;;;19.70;42.24
55656;BME280;41530;52.382;5.270;2023-05-01T02:13:33;101883.41;;;19.73;42.16
55656;BME280;41530;52.382;5.270;2023-05-01T02:16:43;101889.72;;;19.72;42.45
55656;BME280;41530;52.382;5.270;2023-05-01T02:19:56;101900.84;;;19.86;42.13
55656;BME280;41530;52.382;5.270;2023-05-01T02:23:08;101868.81;;;19.67;42.19
55656;BME280;41530;52.382;5.270;2023-05-01T02:26:10;101869.78;;;19.66;42.07
55656;BME280;41530;52.382;5.270;2023-05-01T02:28:49;101868.94;;;19.66;42.25
55656;BME280;41530;52.382;5.270;2023-05-01T02:31:42;101867.69;;;19.70;42.11
55656;BME280;41530;52.382;5.270;2023-05-01T02:34:51;101863.34;;;19.69;42.09
55656;BME280;41530;52.382;5.270;2023-05-01T02:37:52;101853.34;;;19.61;42.48
55656;BME280;41530;52.382;5.270;2023-05-01T02:40:51;101845.34;;;19.61;42.23
55656;BME280;41530;52.382;5.270;2023-05-01T02:44:02;101840.28;;;19.58;42.05
55656;BME280;41530;52.382;5.270;2023-05-01T02:50:29;101828.34;;;19.52;42.39
55656;BME280;41530;52.382;5.270;2023-05-01T02:53:19;101817.22;;;19.47;42.08
55656;BME280;41530;52.382;5.270;2023-05-01T02:56:18;101818.91;;;19.48;42.16
55656;BME280;41530;52.382;5.270;2023-05-01T02:59:03;101838.19;;;19.62;42.17
55656;BME280;41530;52.382;5.270;2023-05-01T03:01:57;101836.47;;;19.61;42.33
55656;BME280;41530;52.382;5.270;2023-05-01T03:04:52;101812.72;;;19.48;42.32
55656;BME280;41530;52.382;5.270;2023-05-01T03:07:56;101817.09;;;19.49;42.21
55656;BME280;41530;52.382;5.270;2023-05-01T03:10:37;101826.09;;;19.57;42.36
55656;BME280;41530;52.382;5.270;2023-05-01T03:13:40;101808.13;;;19.50;42.16
55656;BME280;41530;52.382;5.270;2023-05-01T03:16:15;101809.34;;;19.46;42.20
55656;BME280;41530;52.382;5.270;2023-05-01T03:18:58;101802.50;;;19.43;42.23
55656;BME280;41530;52.382;5.270;2023-05-01T03:21:40;101792.09;;;19.40;42.13
55656;BME280;41530;52.382;5.270;2023-05-01T03:24:11;101810.66;;;19.51;42.33
55656;BME280;41530;52.382;5.270;2023-05-01T03:26:51;101807.97;;;19.51;42.20
55656;BME280;41530;52.382;5.270;2023-05-01T03:29:34;101792.22;;;19.39;42.18
55656;BME280;41530;52.382;5.270;2023-05-01T03:32:17;101806.53;;;19.47;42.15
55656;BME280;41530;52.382;5.270;2023-05-01T03:34:50;101782.81;;;19.35;42.52
55656;BME280;41530;52.382;5.270;2023-05-01T03:40:46;101794.63;;;19.42;42.38
55656;BME280;41530;52.382;5.270;2023-05-01T03:43:27;101769.91;;;19.30;42.43
55656;BME280;41530;52.382;5.270;2023-05-01T03:46:11;101791.94;;;19.42;42.20
55656;BME280;41530;52.382;5.270;2023-05-01T03:48:40;101801.66;;;19.43;42.01
55656;BME280;41530;52.382;5.270;2023-05-01T03:51:17;101784.78;;;19.33;42.20
55656;BME280;41530;52.382;5.270;2023-05-01T03:53:59;101788.72;;;19.38;42.10
55656;BME280;41530;52.382;5.270;2023-05-01T03:56:32;101794.91;;;19.39;42.22
55656;BME280;41530;52.382;5.270;2023-05-01T03:59:09;101781.13;;;19.34;42.03
55656;BME280;41530;52.382;5.270;2023-05-01T04:02:10;101799.97;;;19.42;41.85
55656;BME280;41530;52.382;5.270;2023-05-01T04:04:56;101771.72;;;19.20;42.40
55656;BME280;41530;52.382;5.270;2023-05-01T04:07:56;101783.38;;;19.29;42.09
55656;BME280;41530;52.382;5.270;2023-05-01T04:10:42;101774.25;;;19.21;41.99
55656;BME280;41530;52.382;5.270;2023-05-01T04:13:23;101772.41;;;19.22;41.83
55656;BME280;41530;52.382;5.270;2023-05-01T04:16:06;101783.81;;;19.24;42.00
55656;BME280;41530;52.382;5.270;2023-05-01T04:18:38;101782.69;;;19.27;42.33
55656;BME280;41530;52.382;5.270;2023-05-01T04:21:20;101773.84;;;19.16;41.91
55656;BME280;41530;52.382;5.270;2023-05-01T04:23:59;101771.84;;;19.18;42.01
55656;BME280;41530;52.382;5.270;2023-05-01T04:26:37;101794.47;;;19.34;41.96
55656;BME280;41530;52.382;5.270;2023-05-01T04:29:19;101775.22;;;19.20;41.83
55656;BME280;41530;52.382;5.270;2023-05-01T04:32:00;101751.38;;;19.09;41.93
55656;BME280;41530;52.382;5.270;2023-05-01T04:35:09;101768.78;;;19.13;41.95
55656;BME280;41530;52.382;5.270;2023-05-01T04:37:45;101755.84;;;19.09;41.99
55656;BME280;41530;52.382;5.270;2023-05-01T04:40:41;101771.59;;;19.12;41.89
55656;BME280;41530;52.382;5.270;2023-05-01T04:43:19;101766.38;;;19.10;41.97
55656;BME280;41530;52.382;5.270;2023-05-01T04:49:24;101765.09;;;19.05;41.71
55656;BME280;41530;52.382;5.270;2023-05-01T04:52:11;101759.09;;;19.03;42.00
55656;BME280;41530;52.382;5.270;2023-05-01T04:54:57;101792.34;;;19.18;41.78
55656;BME280;41530;52.382;5.270;2023-05-01T04:57:58;101762.03;;;19.00;41.75
55656;BME280;41530;52.382;5.270;2023-05-01T05:00:32;101761.91;;;19.01;41.82
55656;BME280;41530;52.382;5.270;2023-05-01T05:03:18;101759.78;;;18.95;41.92
55656;BME280;41530;52.382;5.270;2023-05-01T05:06:20;101772.25;;;19.04;41.72
55656;BME280;41530;52.382;5.270;2023-05-01T05:09:05;101789.13;;;19.14;41.94
55656;BME280;41530;52.382;5.270;2023-05-01T05:11:55;101764.56;;;19.01;41.66
55656;BME280;41530;52.382;5.270;2023-05-01T05:14:37;101767.94;;;19.03;42.00
55656;BME280;41530;52.382;5.270;2023-05-01T05:17:22;101749.69;;;18.99;41.98
55656;BME280;41530;52.382;5.270;2023-05-01T05:20:20;101763.16;;;18.97;42.07
55656;BME280;41530;52.382;5.270;2023-05-01T05:23:25;101777.91;;;19.11;42.11
55656;BME280;41530;52.382;5.270;2023-05-01T05:26:26;101754.16;;;18.98;41.93
55656;BME280;41530;52.382;5.270;2023-05-01T05:29:11;101781.97;;;19.15;42.09
55656;BME280;41530;52.382;5.270;2023-05-01T05:32:12;101779.56;;;19.21;41.91
55656;BME280;41530;52.382;5.270;2023-05-01T05:35:38;101764.28;;;19.14;41.90
55656;BME280;41530;52.382;5.270;2023-05-01T05:38:39;101755.00;;;19.08;41.93
55656;BME280;41530;52.382;5.270;2023-05-01T05:41:24;101760.66;;;19.15;41.69
55656;BME280;41530;52.382;5.270;2023-05-01T05:44:15;101743.63;;;19.06;41.81
55656;BME280;41530;52.382;5.270;2023-05-01T05:47:01;101769.63;;;19.23;41.57
55656;BME280;41530;52.382;5.270;2023-05-01T05:49:38;101746.16;;;19.08;41.94
55656;BME280;41530;52.382;5.270;2023-05-01T05:52:12;101760.19;;;19.19;41.77
55656;BME280;41530;52.382;5.270;2023-05-01T05:54:50;101754.31;;;19.16;41.72
55656;BME280;41530;52.382;5.270;2023-05-01T05:57:27;101743.09;;;19.12;41.61
55656;BME280;41530;52.382;5.270;2023-05-01T06:00:22;101746.31;;;19.16;41.76
55656;BME280;41530;52.382;5.270;2023-05-01T06:03:04;101771.75;;;19.30;41.66
55656;BME280;41530;52.382;5.270;2023-05-01T06:05:42;101724.81;;;19.08;41.77
55656;BME280;41530;52.382;5.270;2023-05-01T06:08:12;101751.66;;;19.26;41.86
55656;BME280;41530;52.382;5.270;2023-05-01T06:10:54;101736.50;;;19.16;42.06
55656;BME280;41530;52.382;5.270;2023-05-01T06:13:40;101734.50;;;19.18;41.90
55656;BME280;41530;52.382;5.270;2023-05-01T06:16:39;101740.97;;;19.26;41.99
55656;BME280;41530;52.382;5.270;2023-05-01T06:19:32;101766.25;;;19.41;41.85
55656;BME280;41530;52.382;5.270;2023-05-01T06:22:17;101733.69;;;19.28;42.03
55656;BME280;41530;52.382;5.270;2023-05-01T06:25:09;101748.81;;;19.37;41.99
55656;BME280;41530;52.382;5.270;2023-05-01T06:28:03;101753.03;;;19.39;42.05
55656;BME280;41530;52.382;5.270;2023-05-01T06:30:33;101729.31;;;19.27;42.28
55656;BME280;41530;52.382;5.270;2023-05-01T06:33:02;101729.72;;;19.32;42.20
55656;BME280;41530;52.382;5.270;2023-05-01T06:36:15;101754.16;;;19.46;42.47
55656;BME280;41530;52.382;5.270;2023-05-01T06:38:58;101735.91;;;19.32;43.00
55656;BME280;41530;52.382;5.270;2023-05-01T06:41:28;101742.75;;;19.44;43.02
55656;BME280;41530;52.382;5.270;2023-05-01T06:44:08;101721.19;;;19.28;43.03
55656;BME280;41530;52.382;5.270;2023-05-01T06:46:54;101717.22;;;19.32;43.33
55656;BME280;41530;52.382;5.270;2023-05-01T06:49:39;101726.50;;;19.38;43.24
55656;BME280;41530;52.382;5.270;2023-05-01T06:52:11;101720.75;;;19.33;43.10
55656;BME280;41530;52.382;5.270;2023-05-01T06:55:09;101758.41;;;19.49;43.22
55656;BME280;41530;52.382;5.270;2023-05-01T07:01:00;101722.03;;;19.29;43.21
55656;BME280;41530;52.382;5.270;2023-05-01T07:03:52;101734.78;;;19.35;43.45
55656;BME280;41530;52.382;5.270;2023-05-01T07:06:45;101741.38;;;19.40;43.27
55656;BME280;41530;52.382;5.270;2023-05-01T07:09:37;101756.69;;;19.48;43.22
55656;BME280;41530;52.382;5.270;2023-05-01T07:12:16;101739.44;;;19.42;43.27
55656;BME280;41530;52.382;5.270;2023-05-01T07:14:49;101736.47;;;19.36;43.24
55656;BME280;41530;52.382;5.270;2023-05-01T07:17:27;101749.78;;;19.45;43.15
55656;BME280;41530;52.382;5.270;2023-05-01T07:20:05;101727.47;;;19.37;43.46
55656;BME280;41530;52.382;5.270;2023-05-01T07:22:52;101724.81;;;19.37;43.14
55656;BME280;41530;52.382;5.270;2023-05-01T07:25:55;101740.66;;;19.48;43.21
55656;BME280;41530;52.382;5.270;2023-05-01T07:28:22;101718.22;;;19.41;43.46
55656;BME280;41530;52.382;5.270;2023-05-01T07:30:57;101729.72;;;19.41;43.24
55656;BME280;41530;52.382;5.270;2023-05-01T07:36:52;101711.19;;;19.40;43.30
55656;BME280;41530;52.382;5.270;2023-05-01T07:39:38;101716.53;;;19.40;43.42
55656;BME280;41530;52.382;5.270;2023-05-01T07:42:39;101712.88;;;19.41;43.48
55656;BME280;41530;52.382;5.270;2023-05-01T07:45:38;101742.34;;;19.58;43.09
55656;BME280;41530;52.382;5.270;2023-05-01T07:51:16;101707.25;;;19.44;43.61
55656;BME280;41530;52.382;5.270;2023-05-01T07:54:30;101741.38;;;19.60;43.42
55656;BME280;41530;52.382;5.270;2023-05-01T07:57:08;101709.47;;;19.48;43.33
55656;BME280;41530;52.382;5.270;2023-05-01T08:00:01;101708.63;;;19.48;43.36
55656;BME280;41530;52.382;5.270;2023-05-01T08:02:42;101713.13;;;19.47;43.45
55656;BME280;41530;52.382;5.270;2023-05-01T08:05:24;101715.41;;;19.52;43.33
55656;BME280;41530;52.382;5.270;2023-05-01T08:08:01;101727.19;;;19.59;43.39
55656;BME280;41530;52.382;5.270;2023-05-01T08:14:12;101696.41;;;19.45;43.47
55656;BME280;41530;52.382;5.270;2023-05-01T08:16:59;101705.97;;;19.48;43.13
55656;BME280;41530;52.382;5.270;2023-05-01T08:19:44;101733.94;;;19.63;43.22
55656;BME280;41530;52.382;5.270;2023-05-01T08:22:22;101702.34;;;19.49;43.38
55656;BME280;41530;52.382;5.270;2023-05-01T08:24:52;101714.16;;;19.56;43.14
55656;BME280;41530;52.382;5.270;2023-05-01T08:27:22;101708.09;;;19.54;43.42
55656;BME280;41530;52.382;5.270;2023-05-01T08:29:58;101709.34;;;19.60;43.41
55656;BME280;41530;52.382;5.270;2023-05-01T08:32:28;101712.56;;;19.63;43.25
55656;BME280;41530;52.382;5.270;2023-05-01T08:35:11;101711.44;;;19.66;43.40
55656;BME280;41530;52.382;5.270;2023-05-01T08:37:43;101718.47;;;19.67;43.34
55656;BME280;41530;52.382;5.270;2023-05-01T08:40:30;101714.81;;;19.68;43.49
55656;BME280;41530;52.382;5.270;2023-05-01T08:43:21;101704.44;;;19.65;43.19
55656;BME280;41530;52.382;5.270;2023-05-01T08:49:31;101706.94;;;19.66;43.35
55656;BME280;41530;52.382;5.270;2023-05-01T08:52:38;101711.69;;;19.72;43.25
55656;BME280;41530;52.382;5.270;2023-05-01T08:55:17;101711.41;;;19.75;43.32
55656;BME280;41530;52.382;5.270;2023-05-01T08:58:02;101713.25;;;19.75;43.30
55656;BME280;41530;52.382;5.270;2023-05-01T09:00:44;101699.66;;;19.68;43.28
55656;BME280;41530;52.382;5.270;2023-05-01T09:03:31;101717.75;;;19.74;43.28
55656;BME280;41530;52.382;5.270;2023-05-01T09:14:01;101731.88;;;19.84;43.39
55656;BME280;41530;52.382;5.270;2023-05-01T09:16:56;101722.38;;;19.82;43.46
55656;BME280;41530;52.382;5.270;2023-05-01T09:19:33;101723.59;;;19.87;43.24
55656;BME280;41530;52.382;5.270;2023-05-01T09:22:11;101706.34;;;19.82;43.43
55656;BME280;41530;52.382;5.270;2023-05-01T09:24:40;101724.00;;;19.92;43.32
55656;BME280;41530;52.382;5.270;2023-05-01T09:27:36;101751.09;;;20.07;43.35
55656;BME280;41530;52.382;5.270;2023-05-01T09:30:40;101732.81;;;20.03;43.56
55656;BME280;41530;52.382;5.270;2023-05-01T09:33:14;101723.16;;;19.92;43.66
55656;BME280;41530;52.382;5.270;2023-05-01T09:35:58;101731.59;;;19.97;43.82
55656;BME280;41530;52.382;5.270;2023-05-01T09:38:48;101719.06;;;19.98;43.67
55656;BME280;41530;52.382;5.270;2023-05-01T09:41:57;101705.59;;;19.89;43.88
55656;BME280;41530;52.382;5.270;2023-05-01T09:44:27;101716.69;;;19.95;44.02
55656;BME280;41530;52.382;5.270;2023-05-01T09:47:04;101731.56;;;20.07;44.08
55656;BME280;41530;52.382;5.270;2023-05-01T09:49:49;101742.47;;;20.13;44.11
55656;BME280;41530;52.382;5.270;2023-05-01T09:52:31;101729.06;;;19.96;44.05
55656;BME280;41530;52.382;5.270;2023-05-01T09:55:24;101716.56;;;19.96;44.03
55656;BME280;41530;52.382;5.270;2023-05-01T09:58:08;101730.00;;;20.04;44.10
55656;BME280;41530;52.382;5.270;2023-05-01T10:01:13;101722.41;;;20.00;44.21
55656;BME280;41530;52.382;5.270;2023-05-01T10:03:53;101715.41;;;19.99;44.03
55656;BME280;41530;52.382;5.270;2023-05-01T10:06:27;101727.06;;;20.07;44.18
55656;BME280;41530;52.382;5.270;2023-05-01T10:08:57;101720.72;;;20.08;44.18
55656;BME280;41530;52.382;5.270;2023-05-01T10:11:55;101717.06;;;20.09;44.21
55656;BME280;41530;52.382;5.270;2023-05-01T10:15:17;101717.72;;;20.11;44.01
55656;BME280;41530;52.382;5.270;2023-05-01T10:18:27;101719.41;;;20.12;44.16
55656;BME280;41530;52.382;5.270;2023-05-01T10:21:29;101739.47;;;20.26;44.12
55656;BME280;41530;52.382;5.270;2023-05-01T10:24:06;101721.38;;;20.20;44.27
55656;BME280;41530;52.382;5.270;2023-05-01T10:27:07;101727.78;;;20.27;44.31
55656;BME280;41530;52.382;5.270;2023-05-01T11:15:49;101788.31;;;20.55;44.45
55656;BME280;41530;52.382;5.270;2023-05-01T12:18:24;101771.34;;;20.64;44.49
55656;BME280;41530;52.382;5.270;2023-05-01T12:33:24;101791.72;;;20.75;44.53
55656;BME280;41530;52.382;5.270;2023-05-01T12:36:08;101769.00;;;20.61;44.59
55656;BME280;41530;52.382;5.270;2023-05-01T12:39:18;101798.00;;;20.84;44.74
55656;BME280;41530;52.382;5.270;2023-05-01T12:41:51;101768.53;;;20.66;44.45
55656;BME280;41530;52.382;5.270;2023-05-01T12:45:04;101766.19;;;20.63;44.75
55656;BME280;41530;52.382;5.270;2023-05-01T12:48:11;101775.97;;;20.72;44.32
55656;BME280;41530;52.382;5.270;2023-05-01T12:51:21;101790.75;;;20.76;45.08
55656;BME280;41530;52.382;5.270;2023-05-01T12:54:04;101777.81;;;20.72;45.09
55656;BME280;41530;52.382;5.270;2023-05-01T12:56:42;101773.16;;;20.74;45.26
55656;BME280;41530;52.382;5.270;2023-05-01T12:59:25;101777.81;;;20.72;45.22
55656;BME280;41530;52.382;5.270;2023-05-01T13:02:37;101762.19;;;20.67;45.29
55656;BME280;41530;52.382;5.270;2023-05-01T13:05:36;101773.31;;;20.72;45.14
55656;BME280;41530;52.382;5.270;2023-05-01T13:08:13;101766.25;;;20.71;45.08
55656;BME280;41530;52.382;5.270;2023-05-01T13:11:21;101775.00;;;20.73;45.54
55656;BME280;41530;52.382;5.270;2023-05-01T13:14:11;101776.66;;;20.74;45.32
55656;BME280;41530;52.382;5.270;2023-05-01T13:16:55;101768.94;;;20.71;45.54
55656;BME280;41530;52.382;5.270;2023-05-01T13:20:12;101776.66;;;20.74;45.38
55656;BME280;41530;52.382;5.270;2023-05-01T13:23:18;101770.47;;;20.74;45.31
55656;BME280;41530;52.382;5.270;2023-05-01T13:25:57;101776.53;;;20.76;45.05
55656;BME280;41530;52.382;5.270;2023-05-01T13:28:32;101761.06;;;20.70;45.29
55656;BME280;41530;52.382;5.270;2023-05-01T13:31:45;101756.56;;;20.70;45.78
55656;BME280;41530;52.382;5.270;2023-05-01T13:34:32;101772.53;;;20.80;45.32
55656;BME280;41530;52.382;5.270;2023-05-01T13:37:11;101761.63;;;20.73;45.51
55656;BME280;41530;52.382;5.270;2023-05-01T13:40:13;101760.78;;;20.73;45.72
55656;BME280;41530;52.382;5.270;2023-05-01T13:43:08;101769.34;;;20.76;45.56
55656;BME280;41530;52.382;5.270;2023-05-01T13:46:53;101774.69;;;20.76;45.26
55656;BME280;41530;52.382;5.270;2023-05-01T13:49:41;101776.06;;;20.80;45.45
55656;BME280;41530;52.382;5.270;2023-05-01T13:52:44;101794.19;;;20.86;45.31
55656;BME280;41530;52.382;5.270;2023-05-01T13:55:29;101771.69;;;20.79;45.32
55656;BME280;41530;52.382;5.270;2023-05-01T13:58:30;101772.88;;;20.77;45.43
55656;BME280;41530;52.382;5.270;2023-05-01T14:01:28;101773.53;;;20.79;45.23
55656;BME280;41530;52.382;5.270;2023-05-01T14:03:57;101800.59;;;20.93;45.54
55656;BME280;41530;52.382;5.270;2023-05-01T14:06:50;101776.19;;;20.79;45.53
55656;BME280;41530;52.382;5.270;2023-05-01T14:09:49;101789.69;;;20.87;45.39
55656;BME280;41530;52.382;5.270;2023-05-01T14:12:38;101780.97;;;20.85;45.18
55656;BME280;41530;52.382;5.270;2023-05-01T14:15:19;101777.00;;;20.89;45.31
55656;BME280;41530;52.382;5.270;2023-05-01T14:18:19;101775.47;;;20.86;45.56
55656;BME280;41530;52.382;5.270;2023-05-01T14:21:16;101777.28;;;20.86;45.22
55656;BME280;41530;52.382;5.270;2023-05-01T14:24:39;101765.91;;;20.84;45.26
55656;BME280;41530;52.382;5.270;2023-05-01T14:30:40;101783.41;;;20.96;44.97
55656;BME280;41530;52.382;5.270;2023-05-01T14:33:26;101755.75;;;20.87;44.87
55656;BME280;41530;52.382;5.270;2023-05-01T14:36:19;101773.13;;;21.01;45.24
55656;BME280;41530;52.382;5.270;2023-05-01T14:39:13;101761.47;;;20.92;45.59
55656;BME280;41530;52.382;5.270;2023-05-01T14:42:07;101757.09;;;20.91;45.06
55656;BME280;41530;52.382;5.270;2023-05-01T14:44:46;101760.47;;;20.93;45.33
55656;BME280;41530;52.382;5.270;2023-05-01T14:47:18;101762.31;;;20.93;45.03
55656;BME280;41530;52.382;5.270;2023-05-01T14:50:28;101765.69;;;20.95;45.11
55656;BME280;41530;52.382;5.270;2023-05-01T14:53:07;101774.31;;;21.07;45.29
55656;BME280;41530;52.382;5.270;2023-05-01T14:55:50;101762.84;;;20.96;45.47
55656;BME280;41530;52.382;5.270;2023-05-01T14:59:05;101764.25;;;21.01;45.29
55656;BME280;41530;52.382;5.270;2023-05-01T15:02:09;101771.34;;;21.10;45.22
55656;BME280;41530;52.382;5.270;2023-05-01T15:04:59;101788.19;;;21.20;45.32
55656;BME280;41530;52.382;5.270;2023-05-01T15:08:30;101752.69;;;21.00;45.29
55656;BME280;41530;52.382;5.270;2023-05-01T15:11:21;101760.56;;;21.02;45.17
55656;BME280;41530;52.382;5.270;2023-05-01T15:14:01;101773.88;;;21.11;45.24
55656;BME280;41530;52.382;5.270;2023-05-01T15:16:39;101782.44;;;21.15;45.01
55656;BME280;41530;52.382;5.270;2023-05-01T15:19:23;101773.03;;;21.11;45.41
55656;BME280;41530;52.382;5.270;2023-05-01T15:22:09;101773.56;;;21.14;45.13
55656;BME280;41530;52.382;5.270;2023-05-01T15:24:47;101783.53;;;21.22;45.31
55656;BME280;41530;52.382;5.270;2023-05-01T15:27:33;101778.59;;;21.17;45.09
55656;BME280;41530;52.382;5.270;2023-05-01T15:30:43;101773.97;;;21.19;44.98
55656;BME280;41530;52.382;5.270;2023-05-01T15:33:43;101768.06;;;21.16;45.12
55656;BME280;41530;52.382;5.270;2023-05-01T15:36:38;101786.06;;;21.23;45.15
55656;BME280;41530;52.382;5.270;2023-05-01T15:39:44;101788.44;;;21.26;45.18
55656;BME280;41530;52.382;5.270;2023-05-01T15:42:30;101801.19;;;21.32;45.09
55656;BME280;41530;52.382;5.270;2023-05-01T15:45:11;101802.50;;;21.28;45.21
55656;BME280;41530;52.382;5.270;2023-05-01T15:48:25;101794.22;;;21.22;45.07
55656;BME280;41530;52.382;5.270;2023-05-01T15:50:58;101825.53;;;21.39;45.12
55656;BME280;41530;52.382;5.270;2023-05-01T15:53:50;101800.44;;;21.22;45.15
55656;BME280;41530;52.382;5.270;2023-05-01T15:56:38;101831.03;;;21.38;45.25
55656;BME280;41530;52.382;5.270;2023-05-01T15:59:19;101826.75;;;21.27;44.99
55656;BME280;41530;52.382;5.270;2023-05-01T16:02:30;101837.59;;;21.25;44.49
55656;BME280;41530;52.382;5.270;2023-05-01T16:05:35;101836.34;;;21.20;44.63
55656;BME280;41530;52.382;5.270;2023-05-01T16:08:20;101821.63;;;21.06;44.58
55656;BME280;41530;52.382;5.270;2023-05-01T16:11:21;101823.63;;;21.04;43.90
55656;BME280;41530;52.382;5.270;2023-05-01T16:13:54;101826.75;;;20.99;43.51
55656;BME280;41530;52.382;5.270;2023-05-01T16:16:40;101843.38;;;21.03;43.36
55656;BME280;41530;52.382;5.270;2023-05-01T16:19:49;101823.13;;;20.91;43.23
55656;BME280;41530;52.382;5.270;2023-05-01T16:22:42;101849.16;;;20.98;43.43
55656;BME280;41530;52.382;5.270;2023-05-01T16:25:26;101845.22;;;20.93;43.35
55656;BME280;41530;52.382;5.270;2023-05-01T16:28:15;101830.69;;;20.78;43.56
55656;BME280;41530;52.382;5.270;2023-05-01T16:30:58;101843.75;;;20.81;43.55
55656;BME280;41530;52.382;5.270;2023-05-01T16:33:49;101829.88;;;20.77;43.66
55656;BME280;41530;52.382;5.270;2023-05-01T16:36:35;101856.41;;;20.88;43.79
55656;BME280;41530;52.382;5.270;2023-05-01T16:39:22;101854.03;;;20.85;44.06
55656;BME280;41530;52.382;5.270;2023-05-01T16:42:22;101836.78;;;20.70;43.83
55656;BME280;41530;52.382;5.270;2023-05-01T16:45:08;101838.19;;;20.74;43.74
55656;BME280;41530;52.382;5.270;2023-05-01T16:47:40;101837.47;;;20.72;43.78
55656;BME280;41530;52.382;5.270;2023-05-01T16:50:47;101840.84;;;20.74;43.39
55656;BME280;41530;52.382;5.270;2023-05-01T16:53:26;101835.94;;;20.70;43.63
55656;BME280;41530;52.382;5.270;2023-05-01T16:55:58;101827.91;;;20.70;43.80
55656;BME280;41530;52.382;5.270;2023-05-01T16:59:05;101850.25;;;20.78;43.53
55656;BME280;41530;52.382;5.270;2023-05-01T17:02:01;101873.81;;;20.92;43.18
55656;BME280;41530;52.382;5.270;2023-05-01T17:08:24;101876.41;;;20.84;42.89
55656;BME280;41530;52.382;5.270;2023-05-01T17:18:33;101862.38;;;20.73;43.17
55656;BME280;41530;52.382;5.270;2023-05-01T17:21:06;101855.94;;;20.66;43.29
55656;BME280;41530;52.382;5.270;2023-05-01T17:23:57;101867.75;;;20.73;43.32
55656;BME280;41530;52.382;5.270;2023-05-01T17:26:49;101868.44;;;20.75;43.03
55656;BME280;41530;52.382;5.270;2023-05-01T17:34:22;101892.16;;;20.87;43.71
55656;BME280;41530;52.382;5.270;2023-05-01T17:37:40;101872.19;;;20.82;44.74
55656;BME280;41530;52.382;5.270;2023-05-01T17:40:21;101877.38;;;20.83;45.09
55656;BME280;41530;52.382;5.270;2023-05-01T17:47:05;101885.13;;;20.86;45.10
55656;BME280;41530;52.382;5.270;2023-05-01T17:50:14;101885.69;;;20.90;45.43
55656;BME280;41530;52.382;5.270;2023-05-01T17:56:44;101878.09;;;20.85;45.38